Time;durP1;ratioP1;P1;durP2;ratioP2;P2;SDS_P1;SDS_P2;PMS_P1;PMS_P2;Temp;Humidity;BMP_temperature;BMP_pressure;BME280_temperature;BME280_humidity;BME280_pressure;Samples;Min_cycle;Max_cycle;Signal;HPM_P1;HPM_P2
2023/09/02 00:01:49;;;;;;;4.23;3.00;;;16.80;99.90;;;;;;5023869;28;20087;-76
2023/09/02 00:04:35;;;;;;;8.48;3.65;;;16.80;99.90;;;;;;5033199;28;20037;-76
2023/09/02 00:07:21;;;;;;;4.28;2.50;;;16.80;99.90;;;;;;5030267;28;20052;-77
2023/09/02 00:10:08;;;;;;;5.50;2.63;;;16.80;99.90;;;;;;5007217;28;20116;-76
2023/09/02 00:12:57;;;;;;;4.97;3.00;;;16.80;99.90;;;;;;5029567;28;20044;-76
2023/09/02 00:15:43;;;;;;;7.03;2.92;;;16.80;99.90;;;;;;5045875;28;20393;-77
2023/09/02 00:18:29;;;;;;;6.15;2.67;;;16.70;99.90;;;;;;5042314;28;20137;-76
2023/09/02 00:21:15;;;;;;;5.80;3.13;;;16.70;99.90;;;;;;5011353;28;20123;-76
2023/09/02 00:24:08;;;;;;;8.20;3.50;;;16.60;99.90;;;;;;5037731;28;20134;-77
2023/09/02 00:26:54;;;;;;;6.03;3.25;;;16.70;99.90;;;;;;5020963;28;20630;-76
2023/09/02 00:29:40;;;;;;;9.57;3.88;;;16.60;99.90;;;;;;5016550;28;20452;-76
2023/09/02 00:32:26;;;;;;;9.27;3.92;;;16.60;99.90;;;;;;5033576;28;20124;-76
2023/09/02 00:35:12;;;;;;;4.38;3.05;;;16.60;99.90;;;;;;5035058;28;20068;-76
2023/09/02 00:37:58;;;;;;;8.07;4.35;;;16.60;99.90;;;;;;5039678;28;20413;-76
2023/09/02 00:40:49;;;;;;;5.68;3.70;;;16.60;99.90;;;;;;5025412;28;20048;-76
2023/09/02 00:43:35;;;;;;;7.25;3.90;;;16.60;99.90;;;;;;5035426;28;20121;-75
2023/09/02 00:46:22;;;;;;;5.05;3.60;;;16.60;99.90;;;;;;5008243;28;20136;-76
2023/09/02 00:49:08;;;;;;;6.63;3.85;;;16.50;99.90;;;;;;5017410;28;20075;-75
2023/09/02 00:51:54;;;;;;;10.02;3.80;;;16.50;99.90;;;;;;5031177;28;20529;-76
2023/09/02 00:54:40;;;;;;;8.30;3.60;;;16.50;99.90;;;;;;5024863;28;20048;-77
2023/09/02 00:57:26;;;;;;;4.35;3.00;;;16.50;99.90;;;;;;5024815;28;20057;-77
2023/09/02 01:00:14;;;;;;;5.78;3.67;;;16.50;99.90;;;;;;5011110;28;20045;-77
2023/09/02 01:02:59;;;;;;;6.43;3.53;;;16.50;99.90;;;;;;5024073;28;20047;-77
2023/09/02 01:05:45;;;;;;;5.22;3.67;;;16.50;99.90;;;;;;5037580;28;20039;-77
2023/09/02 01:08:31;;;;;;;7.05;4.00;;;16.50;99.90;;;;;;5006604;28;20052;-76
2023/09/02 01:11:17;;;;;;;7.28;3.72;;;16.50;99.90;;;;;;5020057;28;20457;-76
2023/09/02 01:14:03;;;;;;;8.75;3.70;;;16.50;99.90;;;;;;5039843;28;20041;-76
2023/09/02 01:16:49;;;;;;;7.10;3.60;;;16.50;99.90;;;;;;5035592;28;20128;-77
2023/09/02 01:19:36;;;;;;;6.55;3.80;;;16.50;99.90;;;;;;5035421;28;20135;-76
2023/09/02 01:22:44;;;;;;;5.90;3.08;;;16.50;99.90;;;;;;5011117;28;20049;-76
2023/09/02 01:26:20;;;;;;;6.47;3.13;;;16.50;99.90;;;;;;5035713;28;20049;-76
2023/09/02 01:29:07;;;;;;;7.18;3.40;;;16.40;99.90;;;;;;5035715;28;20048;-77
2023/09/02 01:31:53;;;;;;;5.97;3.10;;;16.40;99.90;;;;;;5037956;28;20033;-77
2023/09/02 01:34:39;;;;;;;3.65;2.72;;;16.40;99.90;;;;;;5020939;28;20041;-76
2023/09/02 01:37:25;;;;;;;4.70;2.80;;;16.40;99.90;;;;;;5009667;28;20038;-76
2023/09/02 01:40:21;;;;;;;2.88;2.38;;;16.40;99.90;;;;;;5019601;28;20620;-77
2023/09/02 01:43:07;;;;;;;5.30;2.80;;;16.40;99.90;;;;;;5030511;28;20128;-76
2023/09/02 01:45:53;;;;;;;4.75;2.47;;;16.30;99.90;;;;;;5024913;28;20120;-77
2023/09/02 01:48:39;;;;;;;5.15;2.53;;;16.30;99.90;;;;;;5005807;28;20048;-76
2023/09/02 01:51:25;;;;;;;4.05;2.60;;;16.30;99.90;;;;;;5029562;28;20095;-76
2023/09/02 01:54:11;;;;;;;4.10;2.88;;;16.30;99.90;;;;;;5034669;28;20053;-76
2023/09/02 01:56:57;;;;;;;5.05;2.80;;;16.30;99.90;;;;;;5030269;28;20049;-77
2023/09/02 01:59:43;;;;;;;4.22;2.80;;;16.30;99.90;;;;;;5031040;28;20052;-76
2023/09/02 02:02:29;;;;;;;5.85;3.40;;;16.30;99.90;;;;;;5029486;28;20522;-76
2023/09/02 02:05:16;;;;;;;9.18;3.70;;;16.20;99.90;;;;;;5027816;28;20054;-76
2023/09/02 02:08:04;;;;;;;5.10;3.20;;;16.20;99.90;;;;;;5019831;28;20457;-76
2023/09/02 02:10:50;;;;;;;4.82;3.40;;;16.20;99.90;;;;;;5019466;28;20043;-76
2023/09/02 02:13:38;;;;;;;5.60;3.42;;;16.20;99.90;;;;;;5020052;28;20041;-77
2023/09/02 02:16:24;;;;;;;6.85;3.45;;;16.20;99.90;;;;;;5027041;28;20043;-76
2023/09/02 02:19:10;;;;;;;5.05;3.13;;;16.20;99.90;;;;;;5047603;28;20414;-76
2023/09/02 02:21:57;;;;;;;4.88;3.08;;;16.20;99.90;;;;;;5048469;28;20041;-76
2023/09/02 02:24:43;;;;;;;4.57;3.30;;;16.20;99.90;;;;;;5039178;28;20049;-76
2023/09/02 02:27:29;;;;;;;4.30;2.90;;;16.20;99.90;;;;;;5022292;28;20385;-77
2023/09/02 02:30:15;;;;;;;6.57;3.30;;;16.20;99.90;;;;;;5018981;28;20088;-77
2023/09/02 02:33:01;;;;;;;3.75;2.75;;;16.20;99.90;;;;;;5024092;28;20042;-76
2023/09/02 02:35:47;;;;;;;4.85;2.85;;;16.30;99.90;;;;;;5036747;28;20029;-77
2023/09/02 02:38:33;;;;;;;8.25;3.63;;;16.20;99.90;;;;;;5044118;28;20029;-78
2023/09/02 02:41:19;;;;;;;4.53;3.33;;;16.20;99.90;;;;;;5043248;28;20049;-77
2023/09/02 02:44:05;;;;;;;12.07;4.82;;;16.20;99.90;;;;;;5019158;28;20048;-77
2023/09/02 02:46:51;;;;;;;8.40;4.53;;;16.20;99.90;;;;;;5027019;28;20033;-77
2023/09/02 02:49:37;;;;;;;4.80;3.83;;;16.20;99.90;;;;;;5043565;28;20029;-77
2023/09/02 02:52:23;;;;;;;4.70;3.70;;;16.20;99.90;;;;;;5045549;28;20101;-77
2023/09/02 02:55:09;;;;;;;16.88;5.88;;;16.20;99.90;;;;;;5020317;28;20080;-77
2023/09/02 02:57:56;;;;;;;6.43;4.40;;;16.10;99.90;;;;;;5035059;28;20041;-76
2023/09/02 03:00:43;;;;;;;5.07;4.47;;;16.10;99.90;;;;;;5049813;28;20115;-77
2023/09/02 03:03:29;;;;;;;5.60;4.53;;;16.00;99.90;;;;;;5007136;28;20451;-77
2023/09/02 03:06:17;;;;;;;5.93;4.68;;;16.00;99.90;;;;;;5031607;28;20045;-76
2023/09/02 03:09:03;;;;;;;7.32;4.53;;;16.00;99.90;;;;;;5034734;28;20446;-76
2023/09/02 03:11:49;;;;;;;6.10;4.95;;;16.00;99.90;;;;;;5028830;28;20041;-76
2023/09/02 03:14:35;;;;;;;6.18;4.85;;;16.00;99.90;;;;;;5032739;28;20034;-77
2023/09/02 03:17:22;;;;;;;6.60;4.50;;;16.00;99.90;;;;;;5009042;28;20069;-77
2023/09/02 03:20:09;;;;;;;6.50;5.32;;;16.00;99.90;;;;;;5005043;28;20060;-76
2023/09/02 03:22:56;;;;;;;8.77;4.82;;;16.00;99.90;;;;;;5038980;28;20041;-76
2023/09/02 03:25:42;;;;;;;8.07;4.65;;;16.00;99.90;;;;;;5037435;28;20105;-77
2023/09/02 03:28:27;;;;;;;6.25;4.65;;;16.00;99.90;;;;;;5022089;28;20080;-77
2023/09/02 03:31:13;;;;;;;6.53;5.18;;;16.00;99.90;;;;;;5033650;28;20847;-76
2023/09/02 03:33:59;;;;;;;9.27;6.10;;;15.90;99.90;;;;;;5032343;28;20048;-76
2023/09/02 03:36:45;;;;;;;6.53;5.57;;;15.90;99.90;;;;;;5020803;28;20048;-76
2023/09/02 03:39:33;;;;;;;6.88;4.95;;;15.90;99.90;;;;;;5021297;28;20132;-76
2023/09/02 03:42:19;;;;;;;7.47;5.13;;;15.90;99.90;;;;;;5032495;28;20061;-76
2023/09/02 03:45:06;;;;;;;6.70;5.05;;;15.80;99.90;;;;;;5031675;28;20053;-77
2023/09/02 03:47:52;;;;;;;7.63;4.60;;;15.80;99.90;;;;;;5017195;28;20045;-76
2023/09/02 03:51:05;;;;;;;7.25;5.45;;;15.80;99.90;;;;;;5018180;28;20523;-76
2023/09/02 03:53:51;;;;;;;9.07;5.25;;;15.80;99.90;;;;;;5034352;28;20071;-77
2023/09/02 03:56:39;;;;;;;5.85;4.53;;;15.80;99.90;;;;;;5049934;28;20049;-76
2023/09/02 03:59:25;;;;;;;5.65;4.82;;;15.80;99.90;;;;;;5034632;28;20103;-76
2023/09/02 04:02:11;;;;;;;8.27;4.97;;;15.80;99.90;;;;;;5009651;28;20704;-76
2023/09/02 04:04:57;;;;;;;6.97;5.70;;;15.80;99.90;;;;;;5026126;28;20037;-76
2023/09/02 04:07:42;;;;;;;6.75;5.22;;;15.80;99.90;;;;;;5038842;28;20041;-76
2023/09/02 04:10:28;;;;;;;6.32;5.10;;;15.80;99.90;;;;;;5030028;28;20091;-76
2023/09/02 04:13:14;;;;;;;7.65;4.93;;;15.80;99.90;;;;;;5039467;28;20497;-76
2023/09/02 04:16:00;;;;;;;6.38;4.35;;;15.80;99.90;;;;;;5025400;28;20047;-76
2023/09/02 04:18:46;;;;;;;5.68;4.30;;;15.80;99.90;;;;;;5007036;28;20053;-76
2023/09/02 04:21:32;;;;;;;5.68;3.80;;;15.80;99.90;;;;;;5008101;28;20116;-76
2023/09/02 04:24:18;;;;;;;5.57;4.07;;;15.80;99.90;;;;;;5018507;28;20132;-76
2023/09/02 04:27:04;;;;;;;5.63;4.22;;;15.80;99.90;;;;;;5021741;28;20427;-75
2023/09/02 04:29:51;;;;;;;5.43;3.83;;;15.80;99.90;;;;;;5028986;28;20084;-76
2023/09/02 04:32:37;;;;;;;4.95;3.08;;;15.80;99.90;;;;;;5009715;28;20037;-76
2023/09/02 04:35:23;;;;;;;6.00;4.00;;;15.80;99.90;;;;;;5056149;28;20493;-76
2023/09/02 04:38:09;;;;;;;7.38;3.95;;;15.80;99.90;;;;;;5024593;28;20057;-76
2023/09/02 04:40:55;;;;;;;10.07;3.95;;;15.70;99.90;;;;;;5021668;28;20130;-76
2023/09/02 04:43:43;;;;;;;5.00;3.40;;;15.70;99.90;;;;;;5026519;28;20194;-76
2023/09/02 04:46:29;;;;;;;7.10;4.00;;;15.70;99.90;;;;;;5035734;28;20029;-76
2023/09/02 04:49:15;;;;;;;5.75;3.90;;;15.70;99.90;;;;;;5041649;28;20099;-76
2023/09/02 04:52:03;;;;;;;6.93;4.22;;;15.70;99.90;;;;;;5027673;28;20037;-76
2023/09/02 04:54:50;;;;;;;5.07;3.60;;;15.70;99.90;;;;;;5041137;28;20099;-76
2023/09/02 04:57:36;;;;;;;5.97;3.95;;;15.70;99.90;;;;;;5024773;28;20513;-76
2023/09/02 05:00:28;;;;;;;4.20;3.40;;;15.70;99.90;;;;;;5023666;28;20132;-76
2023/09/02 05:03:14;;;;;;;4.88;3.40;;;15.70;99.90;;;;;;5026665;28;20037;-76
2023/09/02 05:06:01;;;;;;;5.82;3.25;;;15.70;99.90;;;;;;5038633;28;20038;-76
2023/09/02 05:08:48;;;;;;;5.70;2.97;;;15.70;99.90;;;;;;5034737;28;20038;-77
2023/09/02 05:11:34;;;;;;;3.55;2.80;;;15.60;99.90;;;;;;5010013;28;20134;-76
2023/09/02 05:14:20;;;;;;;3.60;2.63;;;15.60;99.90;;;;;;5030114;28;20127;-78
2023/09/02 05:17:06;;;;;;;3.25;2.47;;;15.60;99.90;;;;;;5033385;28;20045;-76
2023/09/02 05:19:52;;;;;;;3.13;2.30;;;15.60;99.90;;;;;;5029549;28;20049;-76
2023/09/02 05:22:38;;;;;;;3.33;2.30;;;15.50;99.90;;;;;;5042957;28;20037;-76
2023/09/02 05:25:27;;;;;;;5.88;3.10;;;15.50;99.90;;;;;;5033465;28;20045;-76
2023/09/02 05:28:13;;;;;;;3.97;2.55;;;15.50;99.90;;;;;;5036759;28;20362;-76
2023/09/02 05:30:59;;;;;;;4.22;2.72;;;15.50;99.90;;;;;;5030743;28;20132;-76
2023/09/02 05:33:46;;;;;;;4.10;2.80;;;15.50;99.90;;;;;;5013792;28;20044;-76
2023/09/02 05:36:32;;;;;;;4.13;2.58;;;15.50;99.90;;;;;;5029918;28;20734;-76
2023/09/02 05:39:18;;;;;;;4.20;2.55;;;15.50;99.90;;;;;;5022991;28;20042;-76
2023/09/02 05:42:04;;;;;;;3.60;2.47;;;15.50;99.90;;;;;;5034413;28;20123;-76
2023/09/02 05:44:50;;;;;;;4.05;2.47;;;15.50;99.90;;;;;;5013756;28;20496;-76
2023/09/02 05:47:36;;;;;;;5.13;3.13;;;15.50;99.90;;;;;;5039536;28;20780;-76
2023/09/02 05:50:21;;;;;;;4.28;3.08;;;15.50;99.90;;;;;;5042221;28;20041;-76
2023/09/02 05:53:07;;;;;;;4.72;2.75;;;15.50;99.90;;;;;;5051159;28;20040;-76
2023/09/02 05:55:54;;;;;;;6.45;3.28;;;15.50;99.90;;;;;;5036329;28;20044;-76
2023/09/02 05:58:41;;;;;;;3.90;3.10;;;15.60;99.90;;;;;;5039873;28;20127;-76
2023/09/02 06:01:27;;;;;;;6.32;3.40;;;15.60;99.90;;;;;;5022538;28;20466;-76
2023/09/02 06:04:13;;;;;;;4.72;3.38;;;15.60;99.90;;;;;;5008123;28;20060;-76
2023/09/02 06:06:59;;;;;;;5.45;3.60;;;15.70;99.90;;;;;;5035753;28;20049;-76
2023/09/02 06:09:45;;;;;;;5.03;3.58;;;15.70;99.90;;;;;;5030884;28;20116;-76
2023/09/02 06:12:31;;;;;;;4.63;3.72;;;15.70;99.90;;;;;;5021314;28;20069;-77
2023/09/02 06:15:17;;;;;;;4.82;3.25;;;15.80;99.90;;;;;;5045317;28;20037;-76
2023/09/02 06:18:03;;;;;;;5.57;4.07;;;15.90;99.90;;;;;;5021798;28;20064;-76
2023/09/02 06:20:49;;;;;;;5.32;3.80;;;15.90;99.90;;;;;;5020975;28;20037;-77
2023/09/02 06:23:35;;;;;;;6.53;4.50;;;15.90;99.90;;;;;;5041207;28;20052;-76
2023/09/02 06:26:22;;;;;;;8.57;4.97;;;16.00;99.90;;;;;;5027787;28;20446;-76
2023/09/02 06:29:08;;;;;;;6.97;5.73;;;16.00;99.90;;;;;;5027380;28;20124;-76
2023/09/02 06:31:54;;;;;;;6.53;5.00;;;16.00;99.90;;;;;;5019486;28;20720;-77
2023/09/02 06:34:40;;;;;;;6.88;4.80;;;16.10;99.90;;;;;;5051468;28;20040;-76
2023/09/02 06:37:28;;;;;;;6.40;4.60;;;16.20;99.90;;;;;;5027666;28;20041;-77
2023/09/02 06:40:14;;;;;;;5.78;4.65;;;16.20;99.90;;;;;;5025366;28;20144;-76
2023/09/02 06:43:00;;;;;;;6.00;4.63;;;16.20;99.90;;;;;;5021218;28;20607;-76
2023/09/02 06:45:47;;;;;;;8.02;4.97;;;16.30;99.90;;;;;;5020801;28;20053;-76
2023/09/02 06:48:33;;;;;;;8.40;4.25;;;16.30;99.90;;;;;;5054805;28;20029;-76
2023/09/02 06:51:19;;;;;;;7.03;4.93;;;16.30;99.90;;;;;;5039237;28;20032;-76
2023/09/02 06:54:05;;;;;;;6.60;4.80;;;16.40;99.90;;;;;;5017702;28;20051;-76
2023/09/02 06:56:51;;;;;;;6.28;4.35;;;16.40;99.90;;;;;;5042015;28;20143;-77
2023/09/02 06:59:37;;;;;;;8.10;4.70;;;16.50;99.90;;;;;;5043859;28;20453;-76
2023/09/02 07:02:23;;;;;;;6.53;4.65;;;16.50;99.90;;;;;;5039522;28;20044;-76
2023/09/02 07:05:09;;;;;;;9.85;4.93;;;16.60;99.90;;;;;;5029656;28;20478;-76
2023/09/02 07:07:55;;;;;;;8.80;5.55;;;16.60;99.90;;;;;;5041472;28;20088;-76
2023/09/02 07:10:41;;;;;;;6.30;4.93;;;16.60;99.90;;;;;;5017554;28;20037;-76
2023/09/02 07:13:27;;;;;;;7.97;5.18;;;16.60;99.90;;;;;;5021022;28;20076;-76
2023/09/02 07:16:14;;;;;;;11.18;6.00;;;16.70;99.90;;;;;;5037098;28;20365;-76
2023/09/02 07:19:03;;;;;;;9.23;5.63;;;16.70;99.90;;;;;;5033948;28;20118;-76
2023/09/02 07:21:48;;;;;;;;;;;16.80;99.90;;;;;;5036059;28;20037;-77
2023/09/02 07:24:34;;;;;;;8.43;6.18;;;16.80;99.90;;;;;;5040315;28;19924;-77
2023/09/02 07:27:20;;;;;;;14.45;8.23;;;16.80;99.90;;;;;;5019218;28;20128;-77
2023/09/02 07:30:07;;;;;;;13.13;6.75;;;16.90;99.90;;;;;;5029322;28;20541;-77
2023/09/02 07:32:53;;;;;;;10.73;7.53;;;16.90;99.90;;;;;;5032637;28;20128;-77
2023/09/02 07:35:39;;;;;;;12.32;7.00;;;16.90;99.90;;;;;;5032994;28;20501;-77
2023/09/02 07:38:26;;;;;;;9.32;6.13;;;17.00;99.90;;;;;;5033238;28;20103;-77
2023/09/02 07:41:12;;;;;;;9.05;6.07;;;17.10;99.90;;;;;;5029909;28;20049;-77
2023/09/02 07:43:58;;;;;;;10.73;5.90;;;17.10;99.90;;;;;;5016986;28;20140;-76
2023/09/02 07:46:45;;;;;;;10.55;5.95;;;17.10;99.90;;;;;;5004843;28;20092;-76
2023/09/02 07:49:31;;;;;;;10.57;6.38;;;17.20;99.90;;;;;;5033488;28;20366;-76
2023/09/02 07:52:17;;;;;;;8.05;6.07;;;17.30;99.90;;;;;;5007968;28;20485;-76
2023/09/02 07:55:03;;;;;;;11.00;5.78;;;17.30;99.90;;;;;;5038873;28;20723;-77
2023/09/02 07:57:49;;;;;;;8.65;5.55;;;17.40;99.90;;;;;;5048874;28;20106;-76
2023/09/02 08:00:36;;;;;;;10.00;5.07;;;17.40;99.90;;;;;;5006138;28;20056;-76
2023/09/02 08:03:22;;;;;;;8.05;4.78;;;17.50;99.90;;;;;;5021581;28;20056;-76
2023/09/02 08:06:08;;;;;;;8.32;5.47;;;17.50;99.90;;;;;;5018490;28;20092;-76
2023/09/02 08:08:54;;;;;;;7.38;3.88;;;17.50;99.90;;;;;;5034570;28;20066;-76
2023/09/02 08:11:40;;;;;;;5.43;3.55;;;17.50;99.90;;;;;;5018986;28;20504;-76
2023/09/02 08:14:26;;;;;;;7.88;4.38;;;17.50;99.90;;;;;;5032941;28;20056;-76
2023/09/02 08:17:14;;;;;;;7.93;4.38;;;17.60;99.90;;;;;;5044443;28;20040;-77
2023/09/02 08:20:00;;;;;;;8.52;4.05;;;17.70;99.90;;;;;;5036752;28;20041;-75
2023/09/02 08:22:46;;;;;;;5.80;3.92;;;17.70;99.90;;;;;;5010442;28;20049;-77
2023/09/02 08:25:32;;;;;;;8.20;4.10;;;17.70;99.90;;;;;;5019987;28;20413;-77
2023/09/02 08:28:18;;;;;;;8.23;3.78;;;17.70;99.90;;;;;;5009773;28;20033;-77
2023/09/02 08:31:04;;;;;;;5.40;3.30;;;17.70;99.90;;;;;;5032248;28;20120;-77
2023/09/02 08:33:50;;;;;;;4.90;2.95;;;17.80;99.90;;;;;;5032584;28;20048;-77
2023/09/02 08:36:36;;;;;;;4.25;3.35;;;17.90;99.90;;;;;;5053516;28;20047;-77
2023/09/02 08:39:21;;;;;;;5.43;3.55;;;17.90;99.90;;;;;;5037638;28;20102;-76
2023/09/02 08:42:08;;;;;;;4.78;3.70;;;18.00;99.90;;;;;;5020307;28;20686;-77
2023/09/02 08:44:55;;;;;;;6.07;3.67;;;18.10;99.90;;;;;;5020117;28;20044;-77
2023/09/02 08:47:41;;;;;;;4.20;2.90;;;18.10;99.90;;;;;;5033771;28;20126;-76
2023/09/02 08:50:30;;;;;;;4.85;2.83;;;18.10;99.90;;;;;;5006627;28;20033;-76
2023/09/02 08:53:16;;;;;;;4.00;2.80;;;18.20;99.90;;;;;;5020536;28;20038;-77
2023/09/02 08:56:02;;;;;;;2.72;2.20;;;18.20;99.90;;;;;;5019668;28;20072;-77
2023/09/02 08:58:48;;;;;;;3.92;2.63;;;18.30;99.90;;;;;;5021542;28;20155;-76
2023/09/02 09:01:34;;;;;;;3.67;2.30;;;18.30;99.90;;;;;;5018763;28;20048;-76
2023/09/02 09:04:20;;;;;;;2.63;2.03;;;18.30;99.90;;;;;;5005535;28;20080;-76
2023/09/02 09:07:06;;;;;;;3.00;2.33;;;18.20;99.90;;;;;;5022582;28;20761;-76
2023/09/02 09:09:52;;;;;;;3.50;2.30;;;18.30;99.90;;;;;;5038083;28;20412;-76
2023/09/02 09:12:38;;;;;;;3.90;2.40;;;18.30;99.90;;;;;;5025174;28;20041;-76
2023/09/02 09:15:24;;;;;;;2.88;1.95;;;18.30;99.90;;;;;;5029365;28;20114;-76
2023/09/02 09:18:13;;;;;;;2.95;2.40;;;18.30;99.90;;;;;;5014915;28;20053;-76
2023/09/02 09:20:59;;;;;;;2.80;2.10;;;18.30;99.90;;;;;;5011014;28;20045;-76
2023/09/02 09:23:45;;;;;;;2.85;1.70;;;18.30;99.90;;;;;;5035729;28;20045;-77
2023/09/02 09:26:31;;;;;;;2.35;2.03;;;18.30;99.90;;;;;;5037762;28;20041;-76
2023/09/02 09:29:18;;;;;;;3.20;2.13;;;18.30;99.90;;;;;;5036732;28;20037;-77
2023/09/02 09:32:12;;;;;;;3.10;1.90;;;18.40;99.90;;;;;;5023000;28;20044;-76
2023/09/02 09:34:58;;;;;;;2.88;2.08;;;18.40;99.90;;;;;;5021636;28;20041;-76
2023/09/02 09:38:04;;;;;;;3.17;2.33;;;18.50;99.90;;;;;;5034277;28;20048;-76
2023/09/02 09:40:49;;;;;;;3.65;2.00;;;18.50;99.90;;;;;;5013534;28;20101;-76
2023/09/02 09:43:35;;;;;;;3.20;1.90;;;18.70;99.90;;;;;;5033248;28;20636;-76
2023/09/02 09:46:21;;;;;;;3.58;1.80;;;18.90;99.90;;;;;;5040442;28;20041;-76
2023/09/02 09:49:07;;;;;;;3.20;1.83;;;19.00;99.90;;;;;;5032001;28;20065;-76
2023/09/02 09:52:00;;;;;;;2.70;1.80;;;19.00;99.90;;;;;;5022504;28;20044;-77
2023/09/02 09:54:51;;;;;;;4.00;2.00;;;19.10;99.90;;;;;;5036265;28;20358;-76
2023/09/02 09:57:37;;;;;;;2.97;1.70;;;19.10;99.90;;;;;;5036016;28;20046;-76
2023/09/02 10:00:23;;;;;;;6.35;1.80;;;19.10;99.90;;;;;;5021826;28;20038;-77
2023/09/02 10:03:09;;;;;;;3.42;1.90;;;19.20;99.90;;;;;;5027898;28;20040;-76
2023/09/02 10:05:59;;;;;;;3.90;2.45;;;19.40;99.90;;;;;;5023081;28;20046;-76
2023/09/02 10:08:49;;;;;;;4.95;2.40;;;19.50;99.90;;;;;;5006330;28;20033;-76
2023/09/02 10:11:36;;;;;;;4.50;2.40;;;19.60;99.90;;;;;;5034299;28;20037;-77
2023/09/02 10:14:22;;;;;;;5.97;3.45;;;19.70;99.90;;;;;;5029222;28;20501;-76
2023/09/02 10:17:09;;;;;;;4.43;2.90;;;19.90;99.90;;;;;;5038723;28;20052;-76
2023/09/02 10:19:55;;;;;;;4.80;2.92;;;19.90;99.90;;;;;;5021576;28;20132;-77
2023/09/02 10:22:42;;;;;;;4.57;3.20;;;20.10;99.90;;;;;;5010224;28;20040;-76
2023/09/02 10:25:29;;;;;;;4.07;2.65;;;19.90;99.90;;;;;;5038897;28;20115;-76
2023/09/02 10:28:20;;;;;;;3.47;2.70;;;19.80;99.90;;;;;;5026720;28;20808;-76
2023/09/02 10:31:12;;;;;;;4.80;3.17;;;19.80;99.90;;;;;;5038620;28;20453;-76
2023/09/02 10:34:03;;;;;;;3.90;3.05;;;19.70;99.90;;;;;;5026242;28;20063;-76
2023/09/02 10:36:58;;;;;;;4.10;2.85;;;19.60;99.90;;;;;;5031386;28;20049;-76
2023/09/02 10:39:52;;;;;;;4.47;2.78;;;19.60;99.90;;;;;;5024258;28;20491;-76
2023/09/02 10:42:38;;;;;;;5.93;3.10;;;19.70;99.90;;;;;;5038802;28;20063;-76
2023/09/02 10:45:24;;;;;;;4.45;2.80;;;19.80;99.90;;;;;;5019185;28;20431;-76
2023/09/02 10:48:10;;;;;;;4.03;2.88;;;19.80;99.90;;;;;;5024809;28;20083;-76
2023/09/02 10:50:56;;;;;;;4.07;2.53;;;;;;;;;;5017826;28;20041;-77
2023/09/02 10:53:50;;;;;;;3.63;2.75;;;20.00;99.90;;;;;;5029578;28;20110;-76
2023/09/02 10:56:36;;;;;;;2.92;2.15;;;20.30;99.90;;;;;;5044250;28;20044;-76
2023/09/02 10:59:31;;;;;;;5.63;2.53;;;20.50;99.90;;;;;;5034124;28;20044;-76
2023/09/02 11:02:38;;;;;;;3.00;2.20;;;20.70;99.90;;;;;;5012366;28;20037;-77
2023/09/02 11:05:27;;;;;;;3.45;2.55;;;21.00;99.90;;;;;;5029039;28;20041;-77
2023/09/02 11:08:39;;;;;;;5.93;2.80;;;21.10;99.90;;;;;;5029808;28;20406;-77
2023/09/02 11:11:25;;;;;;;3.53;2.20;;;21.30;99.90;;;;;;5036790;28;20098;-76
2023/09/02 11:14:17;;;;;;;3.20;2.10;;;21.30;99.90;;;;;;5021966;28;20075;-76
2023/09/02 11:17:26;;;;;;;2.67;2.00;;;21.40;99.90;;;;;;5015273;28;20045;-77
2023/09/02 11:20:19;;;;;;;3.47;1.95;;;21.40;99.90;;;;;;5044258;28;20048;-77
2023/09/02 11:23:07;;;;;;;2.47;1.90;;;21.50;99.90;;;;;;5015164;28;20079;-77
2023/09/02 11:26:03;;;;;;;2.40;1.90;;;21.50;99.90;;;;;;5020186;28;20048;-76
2023/09/02 11:28:52;;;;;;;2.50;2.10;;;;;;;;;;5005898;28;20060;-77
2023/09/02 11:31:59;;;;;;;3.17;1.93;;;21.90;99.90;;;;;;5037718;28;20106;-76
2023/09/02 11:34:45;;;;;;;2.88;1.85;;;21.60;99.90;;;;;;5016484;28;20276;-76
2023/09/02 11:37:31;;;;;;;3.25;1.90;;;21.50;99.90;;;;;;5015748;28;20156;-76
2023/09/02 11:40:18;;;;;;;2.22;1.60;;;21.30;99.90;;;;;;5026460;28;20047;-76
2023/09/02 11:43:03;;;;;;;2.53;1.73;;;21.20;99.90;;;;;;5014697;28;20048;-76
2023/09/02 11:45:51;;;;;;;2.50;1.73;;;21.10;99.90;;;;;;5009511;28;20045;-77
2023/09/02 11:48:37;;;;;;;3.42;2.10;;;21.10;99.90;;;;;;5021287;28;20040;-77
2023/09/02 11:51:23;;;;;;;2.40;1.80;;;21.10;99.90;;;;;;5021607;28;20405;-76
2023/09/02 11:54:09;;;;;;;2.90;2.03;;;21.20;99.90;;;;;;5024939;28;20056;-76
2023/09/02 11:57:00;;;;;;;3.13;2.00;;;21.20;99.90;;;;;;5024749;28;20494;-77
2023/09/02 11:59:46;;;;;;;4.70;2.60;;;21.30;99.90;;;;;;5017386;28;20055;-76
2023/09/02 12:02:35;;;;;;;2.88;2.13;;;21.10;99.90;;;;;;5020572;28;20152;-77
2023/09/02 12:05:21;;;;;;;3.60;1.95;;;21.10;99.90;;;;;;5020648;28;20049;-76
2023/09/02 12:08:07;;;;;;;2.22;1.80;;;21.10;99.90;;;;;;5032633;28;20044;-77
2023/09/02 12:10:53;;;;;;;4.43;2.30;;;21.10;99.90;;;;;;5033532;28;20052;-77
2023/09/02 12:13:38;;;;;;;3.10;2.05;;;21.10;99.90;;;;;;5017796;28;20037;-77
2023/09/02 12:16:25;;;;;;;3.55;2.13;;;21.10;99.90;;;;;;5027778;28;20435;-77
2023/09/02 12:19:11;;;;;;;3.97;2.70;;;21.10;99.90;;;;;;5027789;28;20139;-76
2023/09/02 12:21:57;;;;;;;4.82;2.58;;;21.10;99.90;;;;;;5015501;28;20076;-76
2023/09/02 12:24:43;;;;;;;3.70;2.05;;;21.00;99.90;;;;;;5013808;28;20045;-76
2023/09/02 12:27:29;;;;;;;2.45;1.98;;;21.00;99.90;;;;;;5019015;28;20038;-77
2023/09/02 12:30:33;;;;;;;2.90;2.10;;;21.10;99.90;;;;;;5041059;28;20164;-77
2023/09/02 12:33:19;;;;;;;2.95;1.70;;;21.10;99.90;;;;;;5030310;28;20048;-77
2023/09/02 12:36:05;;;;;;;2.42;1.73;;;21.10;99.90;;;;;;5022374;28;20075;-76
2023/09/02 12:38:51;;;;;;;2.83;1.60;;;21.20;99.90;;;;;;5019030;28;20045;-76
2023/09/02 12:41:41;;;;;;;2.40;1.65;;;21.30;99.90;;;;;;5041057;28;20036;-76
2023/09/02 12:44:28;;;;;;;2.22;1.60;;;;;;;;;;5029544;28;20049;-76
2023/09/02 12:47:18;;;;;;;2.00;1.50;;;21.80;99.90;;;;;;5028857;28;20761;-76
2023/09/02 12:50:05;;;;;;;2.50;1.88;;;22.20;99.90;;;;;;5038420;28;20112;-76
2023/09/02 12:52:58;;;;;;;2.25;1.60;;;22.40;99.90;;;;;;5016281;28;20535;-76
2023/09/02 12:55:44;;;;;;;1.75;1.40;;;22.50;99.90;;;;;;5020323;28;20120;-76
2023/09/02 12:58:30;;;;;;;2.72;1.80;;;22.50;99.90;;;;;;5038898;28;20037;-76
2023/09/02 13:01:16;;;;;;;2.50;1.20;;;22.50;99.90;;;;;;5020121;28;20064;-77
2023/09/02 13:04:02;;;;;;;2.53;1.60;;;22.90;99.90;;;;;;5028621;28;20587;-77
2023/09/02 13:06:49;;;;;;;2.17;1.60;;;;;;;;;;5032512;28;20033;-77
2023/09/02 13:09:35;;;;;;;1.45;1.35;;;23.40;99.90;;;;;;5038468;28;20067;-77
2023/09/02 13:12:21;;;;;;;2.88;1.55;;;23.40;99.90;;;;;;5051878;28;20099;-77
2023/09/02 13:15:08;;;;;;;2.33;1.85;;;23.50;99.40;;;;;;5036888;28;20040;-76
2023/09/02 13:17:54;;;;;;;2.15;1.85;;;23.20;99.10;;;;;;5031104;28;20049;-76
2023/09/02 13:20:40;;;;;;;3.22;1.73;;;22.90;99.60;;;;;;5045882;28;20491;-76
2023/09/02 13:23:26;;;;;;;1.52;1.40;;;22.50;99.90;;;;;;5023557;28;20041;-76
2023/09/02 13:26:15;;;;;;;3.08;1.60;;;22.30;99.90;;;;;;5017401;28;20037;-76
2023/09/02 13:29:02;;;;;;;1.63;1.40;;;22.20;99.90;;;;;;5004780;28;20057;-75
2023/09/02 13:31:47;;;;;;;1.83;1.35;;;22.00;99.90;;;;;;5010527;28;20106;-76
2023/09/02 13:34:37;;;;;;;2.80;1.55;;;22.00;99.90;;;;;;5047753;28;20071;-76
2023/09/02 13:37:27;;;;;;;2.85;1.48;;;22.00;99.90;;;;;;5017292;28;20049;-76
2023/09/02 13:40:19;;;;;;;2.00;1.50;;;22.00;99.90;;;;;;5046269;28;20139;-76
2023/09/02 13:43:17;;;;;;;3.10;1.40;;;21.80;99.90;;;;;;5040528;28;20438;-77
2023/09/02 13:46:07;;;;;;;1.90;1.42;;;21.80;99.90;;;;;;5018300;28;20045;-76
2023/09/02 13:48:52;;;;;;;2.28;1.50;;;21.90;99.90;;;;;;5017489;28;20056;-77
2023/09/02 13:51:38;;;;;;;2.05;1.50;;;21.80;99.90;;;;;;5025601;28;20069;-75
2023/09/02 13:54:25;;;;;;;2.22;1.30;;;22.00;99.90;;;;;;5035084;28;20041;-76
2023/09/02 13:57:11;;;;;;;3.22;1.88;;;22.20;99.90;;;;;;5042973;28;20418;-76
2023/09/02 13:59:57;;;;;;;3.55;2.13;;;22.20;99.90;;;;;;5013299;28;20041;-76
2023/09/02 14:02:43;;;;;;;6.07;2.75;;;22.20;99.90;;;;;;5027126;28;20045;-76
2023/09/02 14:05:29;;;;;;;4.47;2.67;;;22.20;99.90;;;;;;5030912;28;20056;-76
2023/09/02 14:08:19;;;;;;;4.22;2.38;;;22.10;99.90;;;;;;5018315;28;20111;-76
2023/09/02 14:11:05;;;;;;;2.25;1.80;;;22.10;99.90;;;;;;5014500;28;20588;-76
2023/09/02 14:13:52;;;;;;;1.67;1.30;;;22.40;99.90;;;;;;5035646;28;20106;-77
2023/09/02 14:16:38;;;;;;;2.65;1.70;;;22.80;99.90;;;;;;5034488;28;20379;-77
2023/09/02 14:19:23;;;;;;;2.63;1.98;;;23.10;99.90;;;;;;5019732;28;20343;-77
2023/09/02 14:22:09;;;;;;;2.92;2.05;;;23.40;99.90;;;;;;5043140;28;20052;-77
2023/09/02 14:24:55;;;;;;;2.17;1.80;;;23.70;99.90;;;;;;5015829;28;20543;-76
2023/09/02 14:27:41;;;;;;;1.90;1.58;;;24.40;99.90;;;;;;5045754;28;20533;-76
2023/09/02 14:30:28;;;;;;;4.30;1.45;;;24.30;99.90;;;;;;5024047;28;20041;-77
2023/09/02 14:33:15;;;;;;;2.47;1.77;;;24.50;99.90;;;;;;5048237;28;20039;-77